Time;durP1;ratioP1;P1;durP2;ratioP2;P2;SDS_P1;SDS_P2;PMS_P1;PMS_P2;Temp;Humidity;BMP_temperature;BMP_pressure;BME280_temperature;BME280_humidity;BME280_pressure;Samples;Min_cycle;Max_cycle;Signal;HPM_P1;HPM_P2
2023/03/13 00:00:56;;;;;;;20.05;3.97;;;;;;;9.34;100.00;100205.91;4906957;29;19930;-74
2023/03/13 00:03:23;;;;;;;21.20;4.22;;;;;;;9.32;100.00;100200.00;4905443;29;20059;-77
2023/03/13 00:05:53;;;;;;;15.18;3.50;;;;;;;9.31;100.00;100196.56;4902927;29;20328;-75
2023/03/13 00:08:20;;;;;;;20.05;3.92;;;;;;;9.32;100.00;100190.34;4912037;29;20513;-76
2023/03/13 00:10:46;;;;;;;18.77;3.58;;;;;;;9.27;100.00;100187.34;4903596;29;20417;-76
2023/03/13 00:13:13;;;;;;;21.27;3.78;;;;;;;9.26;100.00;100178.69;4910266;29;20084;-76
2023/03/13 00:15:40;;;;;;;19.00;3.75;;;;;;;9.22;100.00;100169.50;4906618;29;20469;-76
2023/03/13 00:18:06;;;;;;;23.38;4.43;;;;;;;9.24;100.00;100169.34;4908291;29;20052;-76
2023/03/13 00:20:33;;;;;;;26.48;4.65;;;;;;;9.25;100.00;100163.13;4911090;29;20075;-76
2023/03/13 00:22:59;;;;;;;15.82;3.65;;;;;;;9.21;100.00;100152.19;4887251;29;20110;-74
2023/03/13 00:25:26;;;;;;;20.88;3.72;;;;;;;9.23;100.00;100142.38;4917202;29;20111;-75
2023/03/13 00:27:52;;;;;;;19.35;4.60;;;;;;;9.22;100.00;100140.72;4902618;29;20292;-76
2023/03/13 00:30:19;;;;;;;17.08;3.92;;;;;;;9.18;100.00;100128.09;4909924;29;20058;-76
2023/03/13 00:32:46;;;;;;;19.17;3.33;;;;;;;9.20;100.00;100128.78;4904085;29;20520;-76
2023/03/13 00:35:13;;;;;;;19.83;3.08;;;;;;;9.20;100.00;100128.78;4910587;29;20060;-76
2023/03/13 00:37:41;;;;;;;13.95;3.13;;;;;;;9.20;100.00;100115.69;4910672;29;20167;-76
2023/03/13 00:40:08;;;;;;;19.85;3.67;;;;;;;9.22;100.00;100111.94;4899580;29;20056;-75
2023/03/13 00:42:35;;;;;;;16.77;3.60;;;;;;;9.15;100.00;100105.66;4908977;29;20567;-75
2023/03/13 00:45:02;;;;;;;20.83;3.75;;;;;;;9.17;100.00;100113.38;4902932;29;20762;-76
2023/03/13 00:47:29;;;;;;;17.02;3.53;;;;;;;9.08;100.00;100107.28;4910529;29;20090;-76
2023/03/13 00:49:56;;;;;;;13.20;3.33;;;;;;;9.01;100.00;100106.25;4904600;29;20052;-75
2023/03/13 00:52:23;;;;;;;27.90;4.43;;;;;;;8.98;100.00;100094.31;4907382;29;20761;-75
2023/03/13 00:54:50;;;;;;;17.77;3.30;;;;;;;8.98;100.00;100091.69;4887269;29;20053;-73
2023/03/13 00:57:16;;;;;;;20.33;3.55;;;;;;;8.97;100.00;100090.03;4902865;29;20125;-75
2023/03/13 00:59:43;;;;;;;16.77;3.75;;;;;;;8.88;100.00;100083.94;4910111;29;20063;-74
2023/03/13 01:02:09;;;;;;;22.13;4.13;;;;;;;8.86;100.00;100080.66;4901021;29;20569;-75
2023/03/13 01:04:36;;;;;;;20.27;3.38;;;;;;;8.87;100.00;100057.94;4910739;29;20048;-74
2023/03/13 01:07:02;;;;;;;21.30;3.45;;;;;;;8.83;100.00;100070.50;4898666;29;20150;-74
2023/03/13 01:09:29;;;;;;;21.02;3.38;;;;;;;8.83;100.00;100054.78;4904408;29;20139;-75
2023/03/13 01:11:55;;;;;;;15.38;3.28;;;;;;;8.81;100.00;100048.09;4910234;29;20071;-75
2023/03/13 01:14:22;;;;;;;14.50;3.85;;;;;;;8.81;100.00;100043.66;4889888;29;20119;-74
2023/03/13 01:16:48;;;;;;;22.00;3.90;;;;;;;8.81;100.00;100038.44;4908779;29;20103;-74
2023/03/13 01:19:16;;;;;;;18.15;4.55;;;;;;;8.86;100.00;100030.13;4901225;29;20052;-75
2023/03/13 01:21:43;;;;;;;20.38;4.03;;;;;;;8.87;100.00;100024.75;4912130;29;20279;-75
2023/03/13 01:24:11;;;;;;;25.65;4.07;;;;;;;8.90;100.00;100018.41;4900026;29;20075;-74
2023/03/13 01:26:38;;;;;;;16.67;3.58;;;;;;;8.85;100.00;100007.56;4911599;29;20087;-74
2023/03/13 01:29:04;;;;;;;19.58;3.95;;;;;;;8.88;100.00;100002.88;4909129;29;20063;-75
2023/03/13 01:31:34;;;;;;;22.45;4.30;;;;;;;8.89;100.00;99985.38;4901738;29;20056;-75
2023/03/13 01:34:04;;;;;;;18.00;3.63;;;;;;;8.95;100.00;99983.94;4904764;29;20066;-74
2023/03/13 01:36:31;;;;;;;17.88;4.60;;;;;;;8.89;100.00;99977.53;4894140;29;20135;-75
2023/03/13 01:38:59;;;;;;;21.05;4.22;;;;;;;8.87;100.00;99975.06;4907829;29;20054;-74
2023/03/13 01:41:28;;;;;;;15.90;3.22;;;;;;;8.86;100.00;99965.59;4903072;29;20561;-73
2023/03/13 01:43:55;;;;;;;13.75;2.97;;;;;;;8.91;100.00;99957.25;4907093;29;20116;-73
2023/03/13 01:46:26;;;;;;;12.23;3.53;;;;;;;8.94;100.00;99941.25;4908986;29;20055;-72
2023/03/13 01:49:02;;;;;;;23.92;4.28;;;;;;;8.97;100.00;99945.34;4900966;29;20060;-73
2023/03/13 01:51:36;;;;;;;19.73;4.35;;;;;;;9.01;100.00;99944.88;4902008;29;20992;-73
2023/03/13 01:54:08;;;;;;;11.13;2.85;;;;;;;9.02;100.00;99927.41;4914296;29;20060;-73
2023/03/13 01:57:05;;;;;;;10.27;3.33;;;;;;;9.09;100.00;99917.91;4905438;29;20056;-73
2023/03/13 01:59:39;;;;;;;13.55;3.85;;;;;;;9.10;100.00;99920.38;4897634;29;20066;-72
2023/03/13 02:02:06;;;;;;;14.02;3.20;;;;;;;9.11;100.00;99908.13;4903095;29;20404;-73
2023/03/13 02:04:42;;;;;;;11.32;3.30;;;;;;;9.15;100.00;99901.59;4898225;29;20059;-73
2023/03/13 02:07:30;;;;;;;12.00;3.00;;;;;;;9.17;100.00;99897.00;4906910;29;20080;-73
2023/03/13 02:09:56;;;;;;;11.03;3.03;;;;;;;9.18;100.00;99890.81;4887041;29;20076;-74
2023/03/13 02:12:30;;;;;;;9.50;2.75;;;;;;;9.21;100.00;99879.19;4910035;29;20064;-74
2023/03/13 02:15:00;;;;;;;8.27;2.25;;;;;;;9.22;100.00;99876.44;4908769;29;20056;-74
2023/03/13 02:17:28;;;;;;;12.30;3.30;;;;;;;9.25;100.00;99875.28;4896474;29;20062;-72
2023/03/13 02:19:54;;;;;;;11.15;2.92;;;;;;;9.30;100.00;99879.06;4906524;29;20056;-74
2023/03/13 02:22:39;;;;;;;10.32;3.08;;;;;;;9.37;100.00;99866.16;4902115;29;20052;-74
2023/03/13 02:25:24;;;;;;;10.95;2.78;;;;;;;9.41;100.00;99864.84;4904786;29;20058;-74
2023/03/13 02:28:12;;;;;;;9.43;3.20;;;;;;;9.41;100.00;99850.91;4904848;29;20159;-73
2023/03/13 02:30:41;;;;;;;9.82;3.38;;;;;;;9.45;100.00;99842.59;4885636;29;20084;-75
2023/03/13 02:33:10;;;;;;;10.48;3.28;;;;;;;9.46;100.00;99838.19;4901111;29;20485;-74
2023/03/13 02:35:37;;;;;;;;;;;;;;;9.53;100.00;99827.88;4923311;29;20060;-75
2023/03/13 02:38:08;;;;;;;12.77;3.20;;;;;;;9.54;100.00;99827.69;4910650;29;19941;-74
2023/03/13 02:40:38;;;;;;;10.05;3.33;;;;;;;9.54;100.00;99819.03;4910973;29;20052;-75
2023/03/13 02:43:14;;;;;;;8.90;3.58;;;;;;;9.58;100.00;99812.50;4899285;29;20135;-74
2023/03/13 02:45:40;;;;;;;14.10;3.75;;;;;;;9.58;100.00;99796.78;4892696;29;20066;-75
2023/03/13 02:48:07;;;;;;;10.82;3.97;;;;;;;9.61;100.00;99799.06;4909917;29;20087;-75
2023/03/13 02:50:35;;;;;;;10.48;4.03;;;;;;;9.63;100.00;99784.03;4906040;29;20056;-75
2023/03/13 02:53:06;;;;;;;13.98;3.60;;;;;;;9.67;100.00;99778.28;4903073;29;20402;-74
2023/03/13 02:55:39;;;;;;;8.95;3.58;;;;;;;9.66;100.00;99787.13;4905775;29;20056;-75
2023/03/13 02:58:06;;;;;;;9.38;4.00;;;;;;;9.71;100.00;99797.09;4907885;29;20060;-76
2023/03/13 03:00:34;;;;;;;10.63;4.45;;;;;;;9.75;100.00;99787.13;4914477;29;20056;-75
2023/03/13 03:03:01;;;;;;;7.73;3.60;;;;;;;9.80;100.00;99796.13;4902547;29;20441;-75
2023/03/13 03:05:27;;;;;;;11.70;4.47;;;;;;;9.82;100.00;99778.44;4922686;29;20489;-74
2023/03/13 03:07:54;;;;;;;7.22;3.70;;;;;;;9.87;100.00;99778.72;4900296;29;20048;-74
2023/03/13 03:10:20;;;;;;;7.85;3.67;;;;;;;9.90;100.00;99777.59;4911960;29;20056;-74
2023/03/13 03:12:47;;;;;;;7.63;4.22;;;;;;;9.95;100.00;99777.09;4901712;29;20048;-75
2023/03/13 03:15:13;;;;;;;9.23;3.60;;;;;;;10.00;100.00;99780.03;4907876;29;20088;-76
2023/03/13 03:17:40;;;;;;;11.60;4.90;;;;;;;10.05;100.00;99785.56;4912464;29;20167;-75
2023/03/13 03:20:10;;;;;;;9.85;4.50;;;;;;;10.08;100.00;99798.34;4912310;29;20074;-76
2023/03/13 03:22:39;;;;;;;9.30;5.05;;;;;;;10.12;100.00;99786.53;4913061;29;20056;-76
2023/03/13 03:25:07;;;;;;;9.43;4.53;;;;;;;10.16;100.00;99779.16;4903066;29;20190;-74
2023/03/13 03:27:35;;;;;;;13.48;5.00;;;;;;;10.20;100.00;99789.13;4908435;29;20068;-75
2023/03/13 03:30:04;;;;;;;10.07;4.43;;;;;;;10.24;100.00;99787.78;4900829;29;20067;-73
2023/03/13 03:32:31;;;;;;;8.02;3.97;;;;;;;10.28;100.00;99772.56;4911506;29;20116;-75
2023/03/13 03:34:57;;;;;;;9.65;4.57;;;;;;;10.33;100.00;99790.41;4913214;29;20467;-69
2023/03/13 03:37:24;;;;;;;13.63;4.72;;;;;;;10.35;100.00;99767.47;4905036;29;20100;-69
2023/03/13 03:39:50;;;;;;;9.52;4.50;;;;;;;10.36;100.00;99763.88;4911016;29;20568;-73
2023/03/13 03:42:17;;;;;;;9.23;4.63;;;;;;;10.37;100.00;99778.59;4900627;29;20073;-73
2023/03/13 03:44:43;;;;;;;17.17;5.72;;;;;;;10.39;100.00;99780.06;4910997;29;20075;-75
2023/03/13 03:47:10;;;;;;;12.73;5.80;;;;;;;10.37;100.00;99778.59;4904876;29;20535;-74
2023/03/13 03:49:37;;;;;;;9.43;4.90;;;;;;;10.39;100.00;99769.59;4914522;29;20055;-75
2023/03/13 03:52:03;;;;;;;10.15;4.90;;;;;;;10.41;100.00;99766.81;4911661;29;20084;-76
2023/03/13 03:54:30;;;;;;;11.98;5.10;;;;;;;10.43;100.00;99759.59;4900094;29;20071;-74
2023/03/13 03:56:56;;;;;;;10.82;5.10;;;;;;;10.46;100.00;99764.47;4906038;29;20425;-75
2023/03/13 03:59:23;;;;;;;8.05;4.05;;;;;;;10.48;100.00;99746.75;4904101;29;20528;-75
2023/03/13 04:01:49;;;;;;;10.05;5.45;;;;;;;10.50;100.00;99760.50;4905381;29;20139;-77
2023/03/13 04:04:16;;;;;;;8.57;4.53;;;;;;;10.49;100.00;99749.22;4906303;29;20445;-75
2023/03/13 04:06:43;;;;;;;13.20;5.25;;;;;;;10.49;100.00;99749.22;4909438;29;20134;-74
2023/03/13 04:09:09;;;;;;;10.48;4.90;;;;;;;10.52;100.00;99750.66;4902625;29;20063;-76
2023/03/13 04:11:36;;;;;;;6.50;4.28;;;;;;;10.56;100.00;99759.00;4903354;29;20063;-75
2023/03/13 04:14:03;;;;;;;10.00;4.95;;;;;;;10.58;100.00;99751.78;4911564;29;20162;-75
2023/03/13 04:16:29;;;;;;;8.38;4.35;;;;;;;10.61;100.00;99747.03;4902950;29;20139;-75
2023/03/13 04:18:56;;;;;;;8.93;4.60;;;;;;;10.64;100.00;99740.59;4911032;29;20060;-75
2023/03/13 04:21:22;;;;;;;6.60;4.50;;;;;;;10.66;100.00;99734.22;4900004;29;20493;-74
2023/03/13 04:23:49;;;;;;;6.10;4.07;;;;;;;10.70;100.00;99742.53;4907338;29;20055;-73
2023/03/13 04:26:15;;;;;;;7.15;4.82;;;;;;;10.72;100.00;99745.00;4912487;29;20080;-74
2023/03/13 04:28:42;;;;;;;10.43;4.88;;;;;;;10.76;100.00;99725.28;4904704;29;20063;-74
2023/03/13 04:31:08;;;;;;;7.47;4.57;;;;;;;10.80;100.00;99735.28;4893645;29;20163;-74
2023/03/13 04:33:35;;;;;;;10.65;4.85;;;;;;;10.84;100.00;99735.75;4908077;29;20060;-75
2023/03/13 04:36:02;;;;;;;7.18;4.80;;;;;;;10.87;100.00;99728.31;4903616;29;20135;-76
2023/03/13 04:38:29;;;;;;;7.50;4.45;;;;;;;10.88;100.00;99735.22;4904337;29;20058;-75
2023/03/13 04:40:56;;;;;;;20.58;5.60;;;;;;;10.91;100.00;99722.75;4911082;29;20060;-76
2023/03/13 04:43:22;;;;;;;13.25;5.55;;;;;;;10.93;100.00;99716.31;4910186;29;20542;-75
2023/03/13 04:45:53;;;;;;;9.23;4.85;;;;;;;10.98;100.00;99710.56;4908248;29;20406;-75
2023/03/13 04:48:20;;;;;;;7.07;4.57;;;;;;;11.01;100.00;99708.38;4908376;29;20561;-76
2023/03/13 04:50:47;;;;;;;7.00;4.53;;;;;;;11.05;100.00;99695.72;4902886;29;20116;-76
2023/03/13 04:53:14;;;;;;;8.85;5.00;;;;;;;11.09;100.00;99678.63;4913170;29;20055;-73
2023/03/13 04:55:41;;;;;;;6.35;4.57;;;;;;;11.13;100.00;99672.03;4924664;29;20052;-73
2023/03/13 04:58:07;;;;;;;11.15;5.70;;;;;;;11.16;100.00;99665.63;4935811;29;20051;-73
2023/03/13 05:00:34;;;;;;;7.78;5.70;;;;;;;11.20;100.00;99672.16;4933697;28;20063;-75
2023/03/13 05:03:00;;;;;;;9.75;5.28;;;;;;;11.23;100.00;99666.53;4896920;29;20072;-75
2023/03/13 05:05:27;;;;;;;8.65;5.15;;;;;;;11.25;100.00;99681.13;4911199;29;20107;-75
2023/03/13 05:07:54;;;;;;;9.48;5.43;;;;;;;11.28;100.00;99674.69;4904746;29;20087;-75
2023/03/13 05:10:20;;;;;;;8.32;5.13;;;;;;;11.30;100.00;99670.06;4912281;29;20134;-74
2023/03/13 05:12:47;;;;;;;10.02;5.20;;;;;;;11.33;100.00;99661.00;4913389;29;20462;-75
2023/03/13 05:15:13;;;;;;;7.63;4.97;;;;;;;11.37;100.00;99662.28;4909628;29;20087;-76
2023/03/13 05:17:40;;;;;;;8.60;4.90;;;;;;;11.38;100.00;99659.47;4904796;29;20697;-76
2023/03/13 05:20:10;;;;;;;7.18;4.05;;;;;;;11.45;100.00;99657.78;4903237;29;20075;-76
2023/03/13 05:22:37;;;;;;;6.38;4.18;;;;;;;11.50;100.00;99659.03;4910526;29;20066;-76
2023/03/13 05:25:04;;;;;;;7.85;4.57;;;;;;;11.54;100.00;99641.94;4903832;29;20064;-76
2023/03/13 05:27:31;;;;;;;8.32;4.65;;;;;;;11.55;100.00;99652.25;4910829;29;20082;-76
2023/03/13 05:29:57;;;;;;;8.80;4.68;;;;;;;11.56;100.00;99653.06;4898002;29;20124;-75
2023/03/13 05:32:24;;;;;;;11.45;5.07;;;;;;;11.56;100.00;99648.63;4905272;29;20071;-75
2023/03/13 05:34:50;;;;;;;8.02;4.25;;;;;;;11.58;100.00;99648.44;4910588;29;20558;-74
2023/03/13 05:37:17;;;;;;;6.28;4.40;;;;;;;11.63;100.00;99652.16;4903706;29;20242;-76
2023/03/13 05:39:43;;;;;;;8.68;4.43;;;;;;;11.63;100.00;99646.09;4914647;29;21319;-75
2023/03/13 05:42:10;;;;;;;9.40;4.50;;;;;;;11.67;100.00;99645.53;4898062;29;20160;-76
2023/03/13 05:44:36;;;;;;;8.20;4.30;;;;;;;11.71;100.00;99650.44;4909564;29;20067;-76
2023/03/13 05:47:03;;;;;;;8.00;4.72;;;;;;;11.72;100.00;99654.69;4901367;29;20539;-77
2023/03/13 05:49:30;;;;;;;13.02;4.28;;;;;;;11.75;100.00;99649.88;4910488;29;20060;-76
2023/03/13 05:51:56;;;;;;;10.40;4.72;;;;;;;11.76;100.00;99661.19;4910313;29;20131;-76
2023/03/13 05:54:23;;;;;;;11.43;4.20;;;;;;;11.81;100.00;99645.72;4901485;29;20059;-76
2023/03/13 05:56:50;;;;;;;5.95;3.38;;;;;;;11.80;100.00;99642.28;4907287;29;20138;-76
2023/03/13 05:59:17;;;;;;;5.93;4.65;;;;;;;11.84;100.00;99650.63;4895289;29;20658;-74
2023/03/13 06:01:44;;;;;;;11.75;4.10;;;;;;;11.85;100.00;99649.59;4917698;29;20056;-77
2023/03/13 06:04:10;;;;;;;7.35;3.85;;;;;;;11.87;100.00;99639.72;4901572;29;20048;-76
2023/03/13 06:06:37;;;;;;;6.90;3.97;;;;;;;11.93;100.00;99643.47;4908963;29;20147;-76
2023/03/13 06:09:04;;;;;;;6.30;3.72;;;;;;;11.97;100.00;99642.91;4912744;29;20494;-76
2023/03/13 06:11:31;;;;;;;6.57;3.20;;;;;;;11.99;100.00;99648.78;4904513;29;20075;-76
2023/03/13 06:13:58;;;;;;;8.02;3.45;;;;;;;12.02;100.00;99650.25;4909545;29;20072;-76
2023/03/13 06:16:24;;;;;;;8.65;3.65;;;;;;;12.05;100.00;99642.00;4910052;29;20059;-76
2023/03/13 06:18:51;;;;;;;13.40;4.18;;;;;;;12.06;100.00;99643.63;4913809;29;20067;-74
2023/03/13 06:21:17;;;;;;;7.97;3.50;;;;;;;12.09;100.00;99643.25;4896346;29;20058;-75
2023/03/13 06:23:44;;;;;;;6.20;3.97;;;;;;;12.11;100.00;99643.06;4912786;29;20055;-76
2023/03/13 06:26:11;;;;;;;6.95;3.67;;;;;;;12.10;100.00;99634.38;4908373;29;20480;-75
2023/03/13 06:28:37;;;;;;;9.52;3.60;;;;;;;12.16;100.00;99638.06;4902353;29;20066;-76
2023/03/13 06:31:06;;;;;;;8.95;3.78;;;;;;;12.19;100.00;99640.31;4904681;29;20056;-76
2023/03/13 06:33:33;;;;;;;6.55;3.90;;;;;;;12.18;100.00;99625.56;4903994;29;20067;-77
2023/03/13 06:36:00;;;;;;;10.48;3.40;;;;;;;12.22;100.00;99622.38;4913778;29;20056;-76
2023/03/13 06:38:28;;;;;;;7.22;3.20;;;;;;;12.23;100.00;99617.91;4908149;29;20138;-74
2023/03/13 06:40:55;;;;;;;9.27;3.45;;;;;;;12.23;100.00;99638.94;4907539;29;20565;-75
2023/03/13 06:43:22;;;;;;;6.10;2.67;;;;;;;12.25;100.00;99611.50;4913800;29;20052;-76
2023/03/13 06:45:49;;;;;;;9.35;3.05;;;;;;;12.28;100.00;99618.19;4904155;29;20076;-77
2023/03/13 06:48:15;;;;;;;5.35;3.42;;;;;;;12.28;100.00;99607.66;4912840;29;20139;-75
2023/03/13 06:50:42;;;;;;;9.32;3.17;;;;;;;12.29;100.00;99611.94;4897777;29;20086;-77
2023/03/13 06:53:17;;;;;;;7.68;2.92;;;;;;;12.35;100.00;99607.72;4910467;29;20464;-76
2023/03/13 06:55:44;;;;;;;7.40;2.85;;;;;;;12.34;100.00;99603.47;4904133;29;20521;-76
2023/03/13 06:58:11;;;;;;;8.85;2.90;;;;;;;12.35;100.00;99605.91;4916912;29;20355;-76
2023/03/13 07:00:56;;;;;;;9.85;3.10;;;;;;;12.37;100.00;99601.28;4939068;29;20044;-75
2023/03/13 07:03:23;;;;;;;9.90;3.10;;;;;;;12.38;100.00;99616.06;4924268;29;20414;-76
2023/03/13 07:05:55;;;;;;;9.32;2.42;;;;;;;12.42;100.00;99606.78;4913976;29;20056;-76
2023/03/13 07:08:24;;;;;;;8.13;2.90;;;;;;;12.43;100.00;99595.28;4911757;29;20052;-74
2023/03/13 07:10:51;;;;;;;;;;;;;;;12.48;100.00;99597.31;4910513;29;20060;-74
2023/03/13 07:13:21;;;;;;;7.65;3.10;;;;;;;12.46;100.00;99610.66;4909215;29;19988;-75
2023/03/13 07:15:48;;;;;;;5.53;2.60;;;;;;;12.52;100.00;99595.13;4911384;29;21373;-75
2023/03/13 07:18:15;;;;;;;9.10;3.13;;;;;;;12.53;100.00;99610.75;4891857;29;20517;-76
2023/03/13 07:20:41;;;;;;;8.32;2.63;;;;;;;12.56;100.00;99594.56;4907302;29;20186;-74
2023/03/13 07:23:08;;;;;;;9.00;2.90;;;;;;;12.60;100.00;99595.84;4906277;29;20052;-74
2023/03/13 07:25:34;;;;;;;9.30;2.63;;;;;;;12.63;100.00;99599.91;4904049;29;20088;-76
2023/03/13 07:28:01;;;;;;;7.50;2.83;;;;;;;12.64;100.00;99583.09;4893346;29;20052;-76
2023/03/13 07:30:27;;;;;;;7.22;2.70;;;;;;;12.64;100.00;99596.25;4905067;29;20143;-76
2023/03/13 07:32:54;;;;;;;6.45;2.28;;;;;;;12.69;100.00;99590.44;4909132;29;20067;-76
2023/03/13 07:35:21;;;;;;;6.32;2.55;;;;;;;12.72;100.00;99596.13;4910029;29;20052;-75
2023/03/13 07:37:47;;;;;;;13.25;2.40;;;;;;;12.71;100.00;99602.38;4901490;29;20413;-77
2023/03/13 07:40:14;;;;;;;9.05;2.60;;;;;;;12.70;100.00;99608.66;4912571;29;20143;-76
2023/03/13 07:42:41;;;;;;;8.10;3.20;;;;;;;12.76;100.00;99607.06;4905333;29;20662;-75
2023/03/13 07:45:08;;;;;;;9.13;2.90;;;;;;;12.80;100.00;99595.16;4909975;29;20176;-76
2023/03/13 07:47:35;;;;;;;6.25;2.25;;;;;;;12.81;100.00;99633.63;4888033;29;20544;-76
2023/03/13 07:50:02;;;;;;;8.90;2.42;;;;;;;12.81;100.00;99602.06;4907026;29;20055;-76
2023/03/13 07:52:29;;;;;;;8.55;2.83;;;;;;;12.81;100.00;99602.88;4904651;29;22734;-76
2023/03/13 07:54:55;;;;;;;6.45;2.88;;;;;;;12.81;100.00;99589.72;4900179;29;20091;-75
2023/03/13 07:57:22;;;;;;;6.93;2.53;;;;;;;12.84;100.00;99623.56;4912071;29;20048;-75
2023/03/13 07:59:48;;;;;;;6.90;2.25;;;;;;;12.81;100.00;99615.22;4895425;29;20143;-76
2023/03/13 08:02:15;;;;;;;8.82;2.38;;;;;;;12.81;100.00;99602.06;4902555;29;20170;-76
2023/03/13 08:04:42;;;;;;;6.78;2.83;;;;;;;12.78;100.00;99603.25;4885991;29;20965;-76
2023/03/13 08:07:10;;;;;;;10.18;2.75;;;;;;;12.77;100.00;99601.63;4911402;29;20051;-75
2023/03/13 08:09:38;;;;;;;6.57;2.42;;;;;;;12.75;100.00;99589.66;4913570;29;20062;-76
2023/03/13 08:12:05;;;;;;;8.90;2.40;;;;;;;12.73;100.00;99589.06;4893517;29;20076;-76
2023/03/13 08:14:31;;;;;;;10.20;2.42;;;;;;;12.71;100.00;99622.63;4914129;29;20056;-74
2023/03/13 08:16:58;;;;;;;6.68;2.60;;;;;;;12.66;100.00;99610.84;4897036;29;20066;-75
2023/03/13 08:19:25;;;;;;;8.35;2.67;;;;;;;12.69;100.00;99630.72;4903804;29;20470;-75
2023/03/13 08:21:51;;;;;;;5.60;2.08;;;;;;;12.69;100.00;99617.56;4894153;29;20056;-74
2023/03/13 08:24:18;;;;;;;8.07;2.63;;;;;;;12.70;100.00;99607.84;4908322;29;20048;-76
2023/03/13 08:26:45;;;;;;;8.55;2.17;;;;;;;12.78;100.00;99602.44;4908685;29;20087;-76
2023/03/13 08:29:13;;;;;;;8.43;2.53;;;;;;;12.85;100.00;99604.13;4900375;29;20083;-76
2023/03/13 08:31:50;;;;;;;6.00;2.20;;;;;;;12.96;100.00;99605.41;4903785;29;20067;-77
2023/03/13 08:34:17;;;;;;;7.07;2.28;;;;;;;13.03;100.00;99602.81;4895867;29;20163;-75
2023/03/13 08:36:44;;;;;;;5.57;2.08;;;;;;;12.99;100.00;99604.22;4909008;29;20131;-76
2023/03/13 08:39:12;;;;;;;8.43;2.30;;;;;;;12.94;100.00;99604.00;4901059;29;20163;-74
2023/03/13 08:41:40;;;;;;;6.68;2.05;;;;;;;12.92;100.00;99591.03;4908073;29;20075;-74
2023/03/13 08:44:10;;;;;;;4.20;1.83;;;;;;;12.96;100.00;99600.16;4905476;29;20064;-74
2023/03/13 08:46:37;;;;;;;6.80;2.67;;;;;;;12.98;100.00;99592.06;4897608;29;20056;-75
2023/03/13 08:49:05;;;;;;;5.28;1.92;;;;;;;13.00;100.00;99596.13;4915031;29;20048;-75
2023/03/13 08:51:33;;;;;;;4.53;1.67;;;;;;;13.02;100.00;99617.81;4896260;29;20055;-75
2023/03/13 08:54:01;;;;;;;7.05;2.17;;;;;;;13.05;100.00;99617.44;4908518;29;20056;-74
2023/03/13 08:56:29;;;;;;;6.47;2.00;;;;;;;13.14;100.00;99591.78;4886464;29;20063;-76
2023/03/13 08:58:58;;;;;;;5.50;1.92;;;;;;;13.17;100.00;99596.66;4901961;29;20135;-75
2023/03/13 09:01:31;;;;;;;4.40;1.90;;;;;;;13.19;100.00;99593.81;4897163;29;20059;-76
2023/03/13 09:03:59;;;;;;;5.72;2.05;;;;;;;13.26;100.00;99597.31;4907343;29;20139;-75
2023/03/13 09:06:29;;;;;;;6.15;2.38;;;;;;;13.28;100.00;99597.94;4888777;29;20048;-75
2023/03/13 09:08:57;;;;;;;4.28;2.22;;;;;;;13.29;100.00;99578.50;4899396;29;20048;-74
2023/03/13 09:11:24;;;;;;;9.40;2.40;;;;;;;13.35;100.00;99582.19;4906394;29;20051;-75
2023/03/13 09:13:52;;;;;;;7.07;2.13;;;;;;;13.38;100.00;99574.72;4898903;29;20070;-73
2023/03/13 09:16:23;;;;;;;6.45;2.20;;;;;;;13.39;100.00;99580.81;4901701;29;20052;-75
2023/03/13 09:18:51;;;;;;;6.07;2.05;;;;;;;13.42;100.00;99606.75;4902280;29;20103;-75
2023/03/13 09:21:27;;;;;;;10.55;2.53;;;;;;;13.47;100.00;99585.09;4908680;29;20063;-75
2023/03/13 09:23:53;;;;;;;8.13;2.25;;;;;;;13.45;100.00;99561.59;4890477;29;20151;-75
2023/03/13 09:26:21;;;;;;;5.60;2.00;;;;;;;13.51;100.00;99565.25;4896252;29;20500;-75
2023/03/13 09:28:49;;;;;;;;;;;;;;;13.54;100.00;99559.59;4902983;29;20056;-77
2023/03/13 09:31:18;;;;;;;8.57;2.10;;;;;;;13.55;100.00;99559.41;4894114;29;19934;-75
2023/03/13 09:33:46;;;;;;;3.90;1.58;;;;;;;13.61;100.00;99558.59;4905516;29;20112;-75
2023/03/13 09:36:13;;;;;;;4.57;1.60;;;;;;;13.60;100.00;99557.00;4887004;29;20433;-75
2023/03/13 09:38:40;;;;;;;6.35;1.63;;;;;;;13.67;100.00;99554.38;4910076;29;20063;-76
2023/03/13 09:41:16;;;;;;;4.13;1.42;;;;;;;13.79;100.00;99544.88;4886556;29;20519;-75
2023/03/13 09:43:54;;;;;;;6.15;1.63;;;;;;;13.78;100.00;99542.44;4902112;29;20048;-76
2023/03/13 09:46:32;;;;;;;7.57;2.03;;;;;;;13.81;100.00;99531.50;4911956;29;20103;-74
2023/03/13 09:49:01;;;;;;;;;;;;;;;13.86;100.00;99526.47;4903797;29;20070;-75
2023/03/13 09:51:40;;;;;;;4.35;1.77;;;;;;;13.83;100.00;99545.28;4906849;29;20396;-75
2023/03/13 09:54:08;;;;;;;;;;;;;;;13.86;100.00;99521.19;4899136;29;20334;-75
2023/03/13 09:56:48;;;;;;;5.07;1.92;;;;;;;13.85;100.00;99528.25;4908228;29;20504;-75
2023/03/13 09:59:23;;;;;;;5.63;1.85;;;;;;;13.91;100.00;99517.94;4902739;29;20429;-75
2023/03/13 10:01:53;;;;;;;5.68;1.90;;;;;;;13.88;100.00;99520.97;4909767;29;20055;-76
2023/03/13 10:04:28;;;;;;;5.30;1.95;;;;;;;13.92;100.00;99517.75;4909217;29;20456;-75
2023/03/13 10:06:55;;;;;;;5.55;1.48;;;;;;;13.90;100.00;99506.59;4911843;29;20059;-76
2023/03/13 10:09:32;;;;;;;3.28;1.40;;;;;;;13.95;100.00;99512.06;4901101;29;20377;-76
2023/03/13 10:12:05;;;;;;;8.30;1.67;;;;;;;13.98;100.00;99508.22;4893741;29;20063;-76
2023/03/13 10:14:40;;;;;;;3.50;1.58;;;;;;;14.03;100.00;99503.16;4911372;29;20060;-75
2023/03/13 10:17:36;;;;;;;4.20;1.40;;;;;;;14.05;100.00;99514.31;4901543;29;20059;-76
2023/03/13 10:20:22;;;;;;;4.20;1.60;;;;;;;14.20;100.00;99501.75;4906701;29;20104;-76
2023/03/13 10:23:13;;;;;;;6.35;1.70;;;;;;;14.26;100.00;99512.50;4904417;29;20052;-75
2023/03/13 10:25:39;;;;;;;4.40;1.73;;;;;;;14.33;100.00;99516.78;4899463;29;20060;-76
2023/03/13 10:28:12;;;;;;;7.15;1.90;;;;;;;14.44;100.00;99499.50;4895837;29;20048;-76
2023/03/13 10:31:01;;;;;;;11.85;2.20;;;;;;;14.46;100.00;99488.75;4912404;29;20062;-76
2023/03/13 10:33:29;;;;;;;3.85;1.70;;;;;;;14.48;100.00;99478.81;4902119;29;20394;-76
2023/03/13 10:36:10;;;;;;;5.35;1.83;;;;;;;14.54;100.00;99484.06;4907332;29;20050;-76
2023/03/13 10:38:51;;;;;;;8.18;1.90;;;;;;;14.51;100.00;99489.78;4900552;29;20083;-76
2023/03/13 10:41:32;;;;;;;4.38;1.40;;;;;;;14.57;100.00;99491.63;4911881;29;20125;-76
2023/03/13 10:44:02;;;;;;;5.40;1.67;;;;;;;14.59;100.00;99486.16;4904468;29;20052;-76
2023/03/13 10:46:38;;;;;;;5.80;1.95;;;;;;;14.59;100.00;99476.41;4907836;29;20044;-75
2023/03/13 10:49:15;;;;;;;6.18;1.88;;;;;;;14.68;100.00;99484.94;4911499;29;20052;-73
2023/03/13 10:51:48;;;;;;;2.70;1.38;;;;;;;14.67;100.00;99496.50;4896480;29;20054;-74
2023/03/13 10:54:21;;;;;;;8.48;1.92;;;;;;;14.75;100.00;99471.72;4910295;29;20492;-76
2023/03/13 10:56:50;;;;;;;5.25;1.70;;;;;;;14.80;100.00;99469.28;4902997;29;20063;-76
2023/03/13 10:59:20;;;;;;;;;;;;;;;14.85;100.00;99458.09;4910537;29;20064;-76
2023/03/13 11:01:47;;;;;;;2.65;1.38;;;;;;;14.87;100.00;99448.94;4907146;29;19927;-77
2023/03/13 11:04:29;;;;;;;3.38;1.45;;;;;;;14.95;100.00;99472.44;4891436;29;20087;-77
2023/03/13 11:07:15;;;;;;;4.97;1.83;;;;;;;15.01;100.00;99468.16;4907720;29;20064;-77
2023/03/13 11:09:41;;;;;;;3.90;1.52;;;;;;;15.00;100.00;99448.09;4908896;29;20114;-75
2023/03/13 11:12:16;;;;;;;5.88;2.00;;;;;;;15.20;100.00;99445.34;4909931;29;20489;-77
2023/03/13 11:14:44;;;;;;;4.78;1.10;;;;;;;15.30;100.00;99455.47;4903265;29;20056;-76
2023/03/13 11:17:39;;;;;;;2.88;1.10;;;;;;;15.37;100.00;99441.22;4906903;29;20052;-76
2023/03/13 11:20:11;;;;;;;4.10;1.30;;;;;;;15.51;100.00;99433.22;4894885;29;20107;-77
2023/03/13 11:22:52;;;;;;;2.78;1.15;;;;;;;15.58;99.53;99447.19;4908423;29;20147;-77
2023/03/13 11:25:34;;;;;;;5.68;1.70;;;;;;;15.75;97.36;99424.53;4887417;29;20054;-77
2023/03/13 11:28:26;;;;;;;3.80;1.38;;;;;;;15.79;100.00;99423.06;4910333;29;20131;-76
2023/03/13 11:31:22;;;;;;;5.22;1.27;;;;;;;15.70;96.39;99440.22;4901350;29;20092;-75
2023/03/13 11:33:52;;;;;;;2.90;1.13;;;;;;;15.72;98.49;99408.25;4907953;29;20111;-77